sensor_id;sensor_type;location;lat;lon;timestamp;P1;durP1;ratioP1;P2;durP2;ratioP2
78013;SDS011;67222;50.182;8.734;2023-04-29T05:32:31;10.32;;;5.03;;
78013;SDS011;67222;50.182;8.734;2023-04-29T05:34:57;10.38;;;5.47;;
78013;SDS011;67222;50.182;8.734;2023-04-29T05:37:22;9.80;;;5.20;;
78013;SDS011;67222;50.182;8.734;2023-04-29T05:39:47;9.90;;;5.35;;
78013;SDS011;67222;50.182;8.734;2023-04-29T05:42:13;10.00;;;5.63;;
78013;SDS011;67222;50.182;8.734;2023-04-29T05:44:38;10.70;;;5.37;;
78013;SDS011;67222;50.182;8.734;2023-04-29T05:47:04;9.32;;;4.90;;
78013;SDS011;67222;50.182;8.734;2023-04-29T05:49:29;9.95;;;4.90;;
78013;SDS011;67222;50.182;8.734;2023-04-29T05:51:54;10.17;;;4.93;;
78013;SDS011;67222;50.182;8.734;2023-04-29T05:54:20;10.30;;;5.33;;
78013;SDS011;67222;50.182;8.734;2023-04-29T05:56:45;9.95;;;4.97;;
78013;SDS011;67222;50.182;8.734;2023-04-29T05:59:10;9.43;;;5.28;;
78013;SDS011;67222;50.182;8.734;2023-04-29T06:01:36;9.30;;;4.13;;
78013;SDS011;67222;50.182;8.734;2023-04-29T06:04:01;8.83;;;4.93;;
78013;SDS011;67222;50.182;8.734;2023-04-29T06:06:26;7.93;;;3.97;;
78013;SDS011;67222;50.182;8.734;2023-04-29T06:08:53;6.55;;;3.70;;
78013;SDS011;67222;50.182;8.734;2023-04-29T06:11:18;8.67;;;4.20;;
78013;SDS011;67222;50.182;8.734;2023-04-29T06:13:43;8.60;;;4.33;;
78013;SDS011;67222;50.182;8.734;2023-04-29T06:16:10;7.03;;;4.25;;
78013;SDS011;67222;50.182;8.734;2023-04-29T06:18:35;9.48;;;3.83;;
78013;SDS011;67222;50.182;8.734;2023-04-29T06:21:02;8.05;;;3.88;;
78013;SDS011;67222;50.182;8.734;2023-04-29T06:23:27;8.00;;;4.47;;
78013;SDS011;67222;50.182;8.734;2023-04-29T06:25:52;6.73;;;3.93;;
78013;SDS011;67222;50.182;8.734;2023-04-29T06:28:18;8.00;;;3.83;;
78013;SDS011;67222;50.182;8.734;2023-04-29T06:30:43;8.87;;;4.80;;
78013;SDS011;67222;50.182;8.734;2023-04-29T06:33:09;8.70;;;4.57;;
78013;SDS011;67222;50.182;8.734;2023-04-29T06:35:37;8.43;;;4.13;;
78013;SDS011;67222;50.182;8.734;2023-04-29T06:38:04;10.07;;;4.80;;
78013;SDS011;67222;50.182;8.734;2023-04-29T06:40:29;9.17;;;3.93;;
78013;SDS011;67222;50.182;8.734;2023-04-29T06:42:54;7.73;;;4.10;;
78013;SDS011;67222;50.182;8.734;2023-04-29T06:45:20;7.20;;;3.80;;
78013;SDS011;67222;50.182;8.734;2023-04-29T06:47:45;6.80;;;3.90;;
78013;SDS011;67222;50.182;8.734;2023-04-29T06:50:11;8.80;;;3.83;;
78013;SDS011;67222;50.182;8.734;2023-04-29T06:52:36;8.60;;;4.17;;
78013;SDS011;67222;50.182;8.734;2023-04-29T06:55:01;6.27;;;3.90;;
78013;SDS011;67222;50.182;8.734;2023-04-29T06:57:27;7.82;;;4.20;;
78013;SDS011;67222;50.182;8.734;2023-04-29T06:59:52;7.50;;;3.87;;
78013;SDS011;67222;50.182;8.734;2023-04-29T07:02:18;6.57;;;3.70;;
78013;SDS011;67222;50.182;8.734;2023-04-29T07:04:43;6.87;;;3.67;;
78013;SDS011;67222;50.182;8.734;2023-04-29T07:07:08;7.87;;;3.77;;
78013;SDS011;67222;50.182;8.734;2023-04-29T07:09:34;8.25;;;4.72;;
78013;SDS011;67222;50.182;8.734;2023-04-29T07:11:59;6.30;;;3.90;;
78013;SDS011;67222;50.182;8.734;2023-04-29T07:14:26;7.07;;;4.07;;
78013;SDS011;67222;50.182;8.734;2023-04-29T07:16:52;7.17;;;3.57;;
78013;SDS011;67222;50.182;8.734;2023-04-29T07:19:18;7.82;;;3.47;;
78013;SDS011;67222;50.182;8.734;2023-04-29T07:21:45;7.47;;;3.53;;
78013;SDS011;67222;50.182;8.734;2023-04-29T07:24:10;7.43;;;4.33;;
78013;SDS011;67222;50.182;8.734;2023-04-29T07:26:35;9.13;;;4.90;;
78013;SDS011;67222;50.182;8.734;2023-04-29T07:29:00;7.83;;;3.83;;
78013;SDS011;67222;50.182;8.734;2023-04-29T07:31:26;8.57;;;3.70;;
78013;SDS011;67222;50.182;8.734;2023-04-29T07:33:52;8.00;;;4.07;;
78013;SDS011;67222;50.182;8.734;2023-04-29T07:36:18;6.88;;;3.50;;
78013;SDS011;67222;50.182;8.734;2023-04-29T07:38:44;5.53;;;3.20;;
78013;SDS011;67222;50.182;8.734;2023-04-29T07:41:09;5.88;;;3.20;;
78013;SDS011;67222;50.182;8.734;2023-04-29T07:43:34;7.63;;;3.43;;
78013;SDS011;67222;50.182;8.734;2023-04-29T07:46:00;7.03;;;3.63;;
78013;SDS011;67222;50.182;8.734;2023-04-29T07:48:25;6.87;;;3.63;;
78013;SDS011;67222;50.182;8.734;2023-04-29T07:50:50;9.05;;;4.10;;
78013;SDS011;67222;50.182;8.734;2023-04-29T07:53:16;7.77;;;3.90;;
78013;SDS011;67222;50.182;8.734;2023-04-29T07:55:42;7.40;;;3.60;;
78013;SDS011;67222;50.182;8.734;2023-04-29T07:58:07;6.13;;;3.10;;
78013;SDS011;67222;50.182;8.734;2023-04-29T08:00:32;7.43;;;3.53;;
78013;SDS011;67222;50.182;8.734;2023-04-29T08:02:58;6.45;;;3.45;;
78013;SDS011;67222;50.182;8.734;2023-04-29T08:05:23;6.30;;;3.92;;
78013;SDS011;67222;50.182;8.734;2023-04-29T08:07:49;7.35;;;3.97;;
78013;SDS011;67222;50.182;8.734;2023-04-29T08:10:15;7.22;;;3.92;;
78013;SDS011;67222;50.182;8.734;2023-04-29T08:12:44;5.90;;;3.42;;
78013;SDS011;67222;50.182;8.734;2023-04-29T08:15:10;5.97;;;3.47;;
78013;SDS011;67222;50.182;8.734;2023-04-29T08:17:35;7.10;;;3.80;;
78013;SDS011;67222;50.182;8.734;2023-04-29T08:20:00;7.30;;;3.30;;
78013;SDS011;67222;50.182;8.734;2023-04-29T08:22:26;6.05;;;3.55;;
78013;SDS011;67222;50.182;8.734;2023-04-29T08:24:51;7.83;;;3.87;;
78013;SDS011;67222;50.182;8.734;2023-04-29T08:27:16;7.68;;;3.80;;
78013;SDS011;67222;50.182;8.734;2023-04-29T08:29:42;8.60;;;4.28;;
78013;SDS011;67222;50.182;8.734;2023-04-29T08:32:07;6.90;;;3.20;;
78013;SDS011;67222;50.182;8.734;2023-04-29T08:34:33;5.47;;;3.42;;
78013;SDS011;67222;50.182;8.734;2023-04-29T08:37:00;5.43;;;3.10;;
78013;SDS011;67222;50.182;8.734;2023-04-29T08:39:27;6.50;;;3.10;;
78013;SDS011;67222;50.182;8.734;2023-04-29T08:41:52;5.45;;;3.15;;
78013;SDS011;67222;50.182;8.734;2023-04-29T08:44:19;5.45;;;2.78;;
78013;SDS011;67222;50.182;8.734;2023-04-29T08:46:45;5.22;;;2.97;;
78013;SDS011;67222;50.182;8.734;2023-04-29T08:49:11;5.45;;;3.33;;
78013;SDS011;67222;50.182;8.734;2023-04-29T08:51:37;6.38;;;3.25;;
78013;SDS011;67222;50.182;8.734;2023-04-29T08:54:03;5.70;;;3.05;;
78013;SDS011;67222;50.182;8.734;2023-04-29T08:56:29;5.50;;;2.70;;
78013;SDS011;67222;50.182;8.734;2023-04-29T08:58:55;6.25;;;2.90;;
78013;SDS011;67222;50.182;8.734;2023-04-29T09:01:23;5.30;;;2.60;;
78013;SDS011;67222;50.182;8.734;2023-04-29T09:06:56;5.20;;;3.03;;
78013;SDS011;67222;50.182;8.734;2023-04-29T09:09:23;4.50;;;2.67;;
78013;SDS011;67222;50.182;8.734;2023-04-29T09:11:49;5.78;;;3.28;;
78013;SDS011;67222;50.182;8.734;2023-04-29T09:14:14;6.95;;;3.28;;
78013;SDS011;67222;50.182;8.734;2023-04-29T09:16:40;6.20;;;3.03;;
78013;SDS011;67222;50.182;8.734;2023-04-29T09:19:05;5.23;;;2.77;;
78013;SDS011;67222;50.182;8.734;2023-04-29T09:21:31;7.28;;;3.15;;
78013;SDS011;67222;50.182;8.734;2023-04-29T09:23:57;4.60;;;2.47;;
78013;SDS011;67222;50.182;8.734;2023-04-29T09:26:26;5.43;;;2.70;;
78013;SDS011;67222;50.182;8.734;2023-04-29T09:29:10;5.57;;;2.90;;
78013;SDS011;67222;50.182;8.734;2023-04-29T09:31:42;6.20;;;2.85;;
78013;SDS011;67222;50.182;8.734;2023-04-29T09:34:08;4.97;;;3.30;;
78013;SDS011;67222;50.182;8.734;2023-04-29T09:39:14;4.95;;;2.72;;
78013;SDS011;67222;50.182;8.734;2023-04-29T09:41:41;6.40;;;3.10;;
78013;SDS011;67222;50.182;8.734;2023-04-29T09:44:07;4.47;;;2.53;;
78013;SDS011;67222;50.182;8.734;2023-04-29T09:46:33;3.90;;;2.40;;
78013;SDS011;67222;50.182;8.734;2023-04-29T09:49:01;4.43;;;2.60;;
78013;SDS011;67222;50.182;8.734;2023-04-29T09:51:28;4.95;;;2.50;;
78013;SDS011;67222;50.182;8.734;2023-04-29T09:53:56;4.57;;;2.25;;
78013;SDS011;67222;50.182;8.734;2023-04-29T09:56:22;4.85;;;2.22;;
78013;SDS011;67222;50.182;8.734;2023-04-29T09:58:47;3.90;;;2.00;;
78013;SDS011;67222;50.182;8.734;2023-04-29T10:01:13;4.25;;;2.08;;
78013;SDS011;67222;50.182;8.734;2023-04-29T10:03:41;4.00;;;2.25;;
78013;SDS011;67222;50.182;8.734;2023-04-29T10:06:08;4.68;;;2.20;;
78013;SDS011;67222;50.182;8.734;2023-04-29T10:08:35;4.75;;;2.42;;
78013;SDS011;67222;50.182;8.734;2023-04-29T10:11:01;4.43;;;2.30;;
78013;SDS011;67222;50.182;8.734;2023-04-29T10:13:28;4.13;;;1.80;;
78013;SDS011;67222;50.182;8.734;2023-04-29T10:18:35;19.63;;;10.82;;
78013;SDS011;67222;50.182;8.734;2023-04-29T10:21:02;4.70;;;2.50;;
78013;SDS011;67222;50.182;8.734;2023-04-29T10:23:30;4.22;;;1.90;;
78013;SDS011;67222;50.182;8.734;2023-04-29T10:25:57;3.75;;;1.77;;
78013;SDS011;67222;50.182;8.734;2023-04-29T10:28:24;4.63;;;2.40;;
78013;SDS011;67222;50.182;8.734;2023-04-29T10:30:52;3.78;;;2.00;;
78013;SDS011;67222;50.182;8.734;2023-04-29T10:33:18;3.55;;;1.63;;
78013;SDS011;67222;50.182;8.734;2023-04-29T10:35:45;2.90;;;1.60;;
78013;SDS011;67222;50.182;8.734;2023-04-29T10:38:20;3.33;;;1.73;;
78013;SDS011;67222;50.182;8.734;2023-04-29T10:41:09;4.55;;;1.73;;
78013;SDS011;67222;50.182;8.734;2023-04-29T10:43:44;3.25;;;1.73;;
78013;SDS011;67222;50.182;8.734;2023-04-29T10:46:16;3.50;;;1.50;;
78013;SDS011;67222;50.182;8.734;2023-04-29T10:48:50;3.67;;;1.40;;
78013;SDS011;67222;50.182;8.734;2023-04-29T10:52:03;3.28;;;1.70;;
78013;SDS011;67222;50.182;8.734;2023-04-29T10:54:16;3.58;;;1.48;;
78013;SDS011;67222;50.182;8.734;2023-04-29T10:56:49;2.88;;;1.42;;
78013;SDS011;67222;50.182;8.734;2023-04-29T10:59:19;2.83;;;1.35;;
78013;SDS011;67222;50.182;8.734;2023-04-29T11:04:11;2.78;;;1.35;;
78013;SDS011;67222;50.182;8.734;2023-04-29T11:06:38;3.25;;;1.65;;
78013;SDS011;67222;50.182;8.734;2023-04-29T11:14:35;3.40;;;1.70;;
78013;SDS011;67222;50.182;8.734;2023-04-29T11:17:14;3.08;;;1.83;;
78013;SDS011;67222;50.182;8.734;2023-04-29T11:19:42;2.55;;;1.20;;
78013;SDS011;67222;50.182;8.734;2023-04-29T11:24:48;2.67;;;1.45;;
78013;SDS011;67222;50.182;8.734;2023-04-29T11:27:14;2.92;;;1.65;;
78013;SDS011;67222;50.182;8.734;2023-04-29T11:29:39;3.63;;;1.20;;
78013;SDS011;67222;50.182;8.734;2023-04-29T11:32:05;2.83;;;1.58;;
78013;SDS011;67222;50.182;8.734;2023-04-29T11:34:31;2.92;;;1.30;;
78013;SDS011;67222;50.182;8.734;2023-04-29T11:36:57;2.40;;;1.42;;
78013;SDS011;67222;50.182;8.734;2023-04-29T11:39:22;2.80;;;1.20;;
78013;SDS011;67222;50.182;8.734;2023-04-29T11:41:48;3.23;;;1.60;;
78013;SDS011;67222;50.182;8.734;2023-04-29T11:44:13;2.58;;;1.42;;
78013;SDS011;67222;50.182;8.734;2023-04-29T11:46:38;2.90;;;1.53;;
78013;SDS011;67222;50.182;8.734;2023-04-29T11:49:04;2.90;;;1.67;;
78013;SDS011;67222;50.182;8.734;2023-04-29T11:51:29;3.65;;;1.75;;
78013;SDS011;67222;50.182;8.734;2023-04-29T11:53:56;2.63;;;1.30;;
78013;SDS011;67222;50.182;8.734;2023-04-29T11:56:22;2.80;;;1.38;;
78013;SDS011;67222;50.182;8.734;2023-04-29T11:58:54;2.60;;;1.38;;
78013;SDS011;67222;50.182;8.734;2023-04-29T12:01:25;2.25;;;1.02;;
78013;SDS011;67222;50.182;8.734;2023-04-29T12:03:55;2.90;;;1.50;;
78013;SDS011;67222;50.182;8.734;2023-04-29T12:06:26;2.63;;;1.45;;
78013;SDS011;67222;50.182;8.734;2023-04-29T12:08:51;3.17;;;1.67;;
78013;SDS011;67222;50.182;8.734;2023-04-29T12:11:17;4.57;;;1.47;;
78013;SDS011;67222;50.182;8.734;2023-04-29T12:13:42;3.53;;;1.60;;
78013;SDS011;67222;50.182;8.734;2023-04-29T12:16:07;2.77;;;1.30;;
78013;SDS011;67222;50.182;8.734;2023-04-29T12:18:34;2.00;;;1.20;;
78013;SDS011;67222;50.182;8.734;2023-04-29T12:21:00;2.50;;;1.40;;
78013;SDS011;67222;50.182;8.734;2023-04-29T12:23:25;2.63;;;1.30;;
78013;SDS011;67222;50.182;8.734;2023-04-29T12:28:19;4.40;;;2.38;;
78013;SDS011;67222;50.182;8.734;2023-04-29T12:30:48;3.58;;;1.60;;
78013;SDS011;67222;50.182;8.734;2023-04-29T12:33:28;2.63;;;1.60;;
78013;SDS011;67222;50.182;8.734;2023-04-29T12:35:54;3.28;;;1.60;;
78013;SDS011;67222;50.182;8.734;2023-04-29T12:38:31;2.90;;;1.52;;
78013;SDS011;67222;50.182;8.734;2023-04-29T12:40:59;2.80;;;1.40;;
78013;SDS011;67222;50.182;8.734;2023-04-29T12:43:26;4.82;;;1.75;;
78013;SDS011;67222;50.182;8.734;2023-04-29T12:45:53;12.45;;;2.40;;
78013;SDS011;67222;50.182;8.734;2023-04-29T12:48:28;5.93;;;2.08;;
78013;SDS011;67222;50.182;8.734;2023-04-29T12:50:54;3.88;;;1.63;;
78013;SDS011;67222;50.182;8.734;2023-04-29T12:53:22;2.97;;;1.42;;
78013;SDS011;67222;50.182;8.734;2023-04-29T12:55:48;3.55;;;2.03;;
78013;SDS011;67222;50.182;8.734;2023-04-29T12:58:13;3.75;;;2.08;;
78013;SDS011;67222;50.182;8.734;2023-04-29T13:00:39;3.15;;;2.10;;
78013;SDS011;67222;50.182;8.734;2023-04-29T13:03:04;3.03;;;1.65;;
78013;SDS011;67222;50.182;8.734;2023-04-29T13:05:29;2.20;;;1.33;;
78013;SDS011;67222;50.182;8.734;2023-04-29T13:07:55;3.75;;;1.70;;
78013;SDS011;67222;50.182;8.734;2023-04-29T13:10:20;2.65;;;1.38;;
78013;SDS011;67222;50.182;8.734;2023-04-29T13:12:46;3.75;;;1.50;;
78013;SDS011;67222;50.182;8.734;2023-04-29T13:15:11;2.33;;;1.48;;
78013;SDS011;67222;50.182;8.734;2023-04-29T13:17:37;2.95;;;1.60;;
78013;SDS011;67222;50.182;8.734;2023-04-29T13:20:03;3.22;;;1.30;;
78013;SDS011;67222;50.182;8.734;2023-04-29T13:22:29;2.17;;;1.10;;
78013;SDS011;67222;50.182;8.734;2023-04-29T13:24:55;1.98;;;1.00;;
78013;SDS011;67222;50.182;8.734;2023-04-29T13:27:20;2.15;;;1.10;;
78013;SDS011;67222;50.182;8.734;2023-04-29T13:29:46;1.97;;;1.13;;
78013;SDS011;67222;50.182;8.734;2023-04-29T13:32:11;2.00;;;1.00;;
78013;SDS011;67222;50.182;8.734;2023-04-29T13:34:36;2.83;;;1.10;;
78013;SDS011;67222;50.182;8.734;2023-04-29T13:37:01;2.20;;;1.10;;
78013;SDS011;67222;50.182;8.734;2023-04-29T13:39:27;1.92;;;1.00;;
78013;SDS011;67222;50.182;8.734;2023-04-29T13:41:52;2.60;;;1.10;;
78013;SDS011;67222;50.182;8.734;2023-04-29T13:44:18;1.97;;;0.90;;
78013;SDS011;67222;50.182;8.734;2023-04-29T13:46:43;1.80;;;1.00;;
78013;SDS011;67222;50.182;8.734;2023-04-29T13:49:10;2.53;;;1.27;;
78013;SDS011;67222;50.182;8.734;2023-04-29T13:51:35;2.80;;;1.70;;
78013;SDS011;67222;50.182;8.734;2023-04-29T13:54:00;2.37;;;1.67;;
78013;SDS011;67222;50.182;8.734;2023-04-29T13:56:26;2.87;;;1.70;;
78013;SDS011;67222;50.182;8.734;2023-04-29T13:58:51;3.47;;;1.97;;
78013;SDS011;67222;50.182;8.734;2023-04-29T14:01:17;3.85;;;2.10;;
78013;SDS011;67222;50.182;8.734;2023-04-29T14:03:42;3.07;;;1.80;;
78013;SDS011;67222;50.182;8.734;2023-04-29T14:06:08;3.13;;;1.70;;
78013;SDS011;67222;50.182;8.734;2023-04-29T14:08:34;2.55;;;1.63;;
78013;SDS011;67222;50.182;8.734;2023-04-29T14:10:59;3.13;;;1.80;;
78013;SDS011;67222;50.182;8.734;2023-04-29T14:13:24;2.50;;;1.55;;
78013;SDS011;67222;50.182;8.734;2023-04-29T14:15:50;3.83;;;2.28;;
78013;SDS011;67222;50.182;8.734;2023-04-29T14:18:15;3.70;;;2.30;;
78013;SDS011;67222;50.182;8.734;2023-04-29T14:20:41;3.77;;;2.33;;
78013;SDS011;67222;50.182;8.734;2023-04-29T14:23:06;3.30;;;1.73;;
78013;SDS011;67222;50.182;8.734;2023-04-29T14:25:31;3.70;;;2.40;;
78013;SDS011;67222;50.182;8.734;2023-04-29T14:27:56;3.57;;;1.97;;
78013;SDS011;67222;50.182;8.734;2023-04-29T14:30:22;3.08;;;2.00;;
78013;SDS011;67222;50.182;8.734;2023-04-29T14:32:47;3.13;;;2.10;;
78013;SDS011;67222;50.182;8.734;2023-04-29T14:35:13;4.03;;;2.20;;
78013;SDS011;67222;50.182;8.734;2023-04-29T14:37:39;3.90;;;2.30;;
78013;SDS011;67222;50.182;8.734;2023-04-29T14:40:04;5.47;;;2.70;;
78013;SDS011;67222;50.182;8.734;2023-04-29T14:42:33;4.90;;;2.38;;
78013;SDS011;67222;50.182;8.734;2023-04-29T14:44:58;4.07;;;2.58;;
78013;SDS011;67222;50.182;8.734;2023-04-29T14:47:23;4.00;;;2.33;;
78013;SDS011;67222;50.182;8.734;2023-04-29T14:49:50;2.83;;;1.30;;
78013;SDS011;67222;50.182;8.734;2023-04-29T14:52:16;4.00;;;1.40;;
78013;SDS011;67222;50.182;8.734;2023-04-29T14:54:41;3.47;;;1.20;;
78013;SDS011;67222;50.182;8.734;2023-04-29T14:57:06;5.20;;;1.00;;
78013;SDS011;67222;50.182;8.734;2023-04-29T14:59:31;1.93;;;1.00;;
78013;SDS011;67222;50.182;8.734;2023-04-29T15:01:57;2.53;;;0.90;;
78013;SDS011;67222;50.182;8.734;2023-04-29T15:04:22;1.97;;;1.00;;
78013;SDS011;67222;50.182;8.734;2023-04-29T15:06:48;2.13;;;0.93;;
78013;SDS011;67222;50.182;8.734;2023-04-29T15:09:14;2.03;;;0.63;;
78013;SDS011;67222;50.182;8.734;2023-04-29T15:11:40;1.77;;;0.90;;
78013;SDS011;67222;50.182;8.734;2023-04-29T15:14:05;2.58;;;1.13;;
78013;SDS011;67222;50.182;8.734;2023-04-29T15:16:31;1.63;;;0.80;;
78013;SDS011;67222;50.182;8.734;2023-04-29T15:18:56;1.65;;;0.68;;
78013;SDS011;67222;50.182;8.734;2023-04-29T15:21:21;1.98;;;0.60;;
78013;SDS011;67222;50.182;8.734;2023-04-29T15:23:47;1.17;;;0.75;;
78013;SDS011;67222;50.182;8.734;2023-04-29T15:26:12;2.53;;;0.80;;
78013;SDS011;67222;50.182;8.734;2023-04-29T15:28:38;1.90;;;0.88;;
78013;SDS011;67222;50.182;8.734;2023-04-29T15:31:03;1.60;;;0.80;;
78013;SDS011;67222;50.182;8.734;2023-04-29T15:33:29;1.90;;;0.82;;
78013;SDS011;67222;50.182;8.734;2023-04-29T15:35:55;2.55;;;0.90;;
78013;SDS011;67222;50.182;8.734;2023-04-29T15:38:21;2.80;;;1.10;;
78013;SDS011;67222;50.182;8.734;2023-04-29T15:40:46;2.38;;;1.17;;
78013;SDS011;67222;50.182;8.734;2023-04-29T15:43:11;3.87;;;1.70;;
78013;SDS011;67222;50.182;8.734;2023-04-29T15:45:36;3.10;;;1.60;;
78013;SDS011;67222;50.182;8.734;2023-04-29T15:48:02;4.60;;;2.07;;
78013;SDS011;67222;50.182;8.734;2023-04-29T15:50:27;4.53;;;2.22;;
78013;SDS011;67222;50.182;8.734;2023-04-29T15:52:52;4.70;;;2.10;;
78013;SDS011;67222;50.182;8.734;2023-04-29T15:55:19;4.50;;;2.28;;
78013;SDS011;67222;50.182;8.734;2023-04-29T15:57:45;5.03;;;2.72;;
78013;SDS011;67222;50.182;8.734;2023-04-29T16:00:11;7.97;;;3.10;;
78013;SDS011;67222;50.182;8.734;2023-04-29T16:02:36;5.13;;;2.72;;
78013;SDS011;67222;50.182;8.734;2023-04-29T16:05:02;6.95;;;3.28;;
78013;SDS011;67222;50.182;8.734;2023-04-29T16:07:27;6.07;;;3.30;;
78013;SDS011;67222;50.182;8.734;2023-04-29T16:09:53;5.70;;;3.17;;
78013;SDS011;67222;50.182;8.734;2023-04-29T16:12:18;5.60;;;3.28;;
78013;SDS011;67222;50.182;8.734;2023-04-29T16:14:44;6.40;;;3.35;;
78013;SDS011;67222;50.182;8.734;2023-04-29T16:17:10;6.15;;;3.13;;
78013;SDS011;67222;50.182;8.734;2023-04-29T16:19:36;7.30;;;3.58;;
78013;SDS011;67222;50.182;8.734;2023-04-29T16:22:02;7.30;;;4.20;;
78013;SDS011;67222;50.182;8.734;2023-04-29T16:24:27;6.88;;;4.03;;
78013;SDS011;67222;50.182;8.734;2023-04-29T16:26:53;7.70;;;4.03;;
78013;SDS011;67222;50.182;8.734;2023-04-29T16:29:19;6.18;;;3.55;;
78013;SDS011;67222;50.182;8.734;2023-04-29T16:31:44;7.73;;;3.93;;
78013;SDS011;67222;50.182;8.734;2023-04-29T16:34:10;7.35;;;4.03;;
78013;SDS011;67222;50.182;8.734;2023-04-29T16:36:35;6.90;;;3.35;;
78013;SDS011;67222;50.182;8.734;2023-04-29T16:39:01;6.40;;;3.42;;
78013;SDS011;67222;50.182;8.734;2023-04-29T16:41:28;7.90;;;4.47;;
78013;SDS011;67222;50.182;8.734;2023-04-29T16:43:54;12.82;;;6.30;;
78013;SDS011;67222;50.182;8.734;2023-04-29T16:46:20;15.18;;;7.80;;
78013;SDS011;67222;50.182;8.734;2023-04-29T16:48:45;12.45;;;6.57;;
78013;SDS011;67222;50.182;8.734;2023-04-29T16:51:11;12.55;;;7.18;;
78013;SDS011;67222;50.182;8.734;2023-04-29T16:53:36;7.65;;;5.05;;
78013;SDS011;67222;50.182;8.734;2023-04-29T16:56:02;6.82;;;3.78;;
78013;SDS011;67222;50.182;8.734;2023-04-29T16:58:27;6.22;;;3.85;;
78013;SDS011;67222;50.182;8.734;2023-04-29T17:00:53;6.93;;;3.90;;
78013;SDS011;67222;50.182;8.734;2023-04-29T17:03:19;7.65;;;3.65;;
78013;SDS011;67222;50.182;8.734;2023-04-29T17:05:44;6.15;;;4.15;;
78013;SDS011;67222;50.182;8.734;2023-04-29T17:08:10;6.53;;;3.85;;
78013;SDS011;67222;50.182;8.734;2023-04-29T17:10:35;6.17;;;3.67;;
78013;SDS011;67222;50.182;8.734;2023-04-29T17:13:01;6.82;;;3.78;;
78013;SDS011;67222;50.182;8.734;2023-04-29T17:15:26;10.35;;;4.10;;
78013;SDS011;67222;50.182;8.734;2023-04-29T17:17:52;7.82;;;4.75;;
78013;SDS011;67222;50.182;8.734;2023-04-29T17:20:18;8.38;;;4.63;;
78013;SDS011;67222;50.182;8.734;2023-04-29T17:22:45;7.25;;;4.20;;
78013;SDS011;67222;50.182;8.734;2023-04-29T17:25:10;8.07;;;4.73;;
78013;SDS011;67222;50.182;8.734;2023-04-29T17:27:38;9.73;;;5.28;;
78013;SDS011;67222;50.182;8.734;2023-04-29T17:30:04;9.48;;;5.18;;
78013;SDS011;67222;50.182;8.734;2023-04-29T17:32:30;8.10;;;5.15;;
78013;SDS011;67222;50.182;8.734;2023-04-29T17:35:02;8.80;;;4.85;;
78013;SDS011;67222;50.182;8.734;2023-04-29T17:37:28;8.80;;;5.15;;
78013;SDS011;67222;50.182;8.734;2023-04-29T17:39:54;7.90;;;4.63;;
78013;SDS011;67222;50.182;8.734;2023-04-29T17:42:19;8.83;;;5.60;;
78013;SDS011;67222;50.182;8.734;2023-04-29T17:44:45;8.90;;;4.78;;
78013;SDS011;67222;50.182;8.734;2023-04-29T17:47:11;8.60;;;5.15;;
78013;SDS011;67222;50.182;8.734;2023-04-29T17:49:36;9.85;;;5.15;;
78013;SDS011;67222;50.182;8.734;2023-04-29T17:52:02;10.32;;;5.57;;
78013;SDS011;67222;50.182;8.734;2023-04-29T17:54:28;10.25;;;5.93;;
78013;SDS011;67222;50.182;8.734;2023-04-29T17:56:54;9.45;;;5.47;;
78013;SDS011;67222;50.182;8.734;2023-04-29T17:59:19;15.52;;;8.98;;
78013;SDS011;67222;50.182;8.734;2023-04-29T18:01:45;9.98;;;6.05;;
78013;SDS011;67222;50.182;8.734;2023-04-29T18:04:10;10.35;;;6.60;;
78013;SDS011;67222;50.182;8.734;2023-04-29T18:06:36;18.85;;;9.48;;
78013;SDS011;67222;50.182;8.734;2023-04-29T18:09:01;11.15;;;6.53;;
78013;SDS011;67222;50.182;8.734;2023-04-29T18:11:28;11.25;;;6.70;;
78013;SDS011;67222;50.182;8.734;2023-04-29T18:13:53;8.68;;;5.47;;
78013;SDS011;67222;50.182;8.734;2023-04-29T18:16:18;10.35;;;5.90;;
78013;SDS011;67222;50.182;8.734;2023-04-29T18:18:44;7.43;;;5.07;;
78013;SDS011;67222;50.182;8.734;2023-04-29T18:21:10;8.05;;;5.15;;
78013;SDS011;67222;50.182;8.734;2023-04-29T18:23:35;9.23;;;5.90;;
78013;SDS011;67222;50.182;8.734;2023-04-29T18:26:01;13.10;;;8.35;;
78013;SDS011;67222;50.182;8.734;2023-04-29T18:28:27;9.65;;;6.32;;
78013;SDS011;67222;50.182;8.734;2023-04-29T18:30:53;10.43;;;7.10;;
78013;SDS011;67222;50.182;8.734;2023-04-29T18:33:20;12.75;;;8.13;;
78013;SDS011;67222;50.182;8.734;2023-04-29T18:35:47;10.82;;;6.57;;
78013;SDS011;67222;50.182;8.734;2023-04-29T18:38:12;10.40;;;6.30;;
78013;SDS011;67222;50.182;8.734;2023-04-29T18:43:06;10.33;;;5.47;;
78013;SDS011;67222;50.182;8.734;2023-04-29T18:45:32;9.45;;;5.85;;
78013;SDS011;67222;50.182;8.734;2023-04-29T18:47:57;11.40;;;7.17;;
78013;SDS011;67222;50.182;8.734;2023-04-29T18:50:23;8.95;;;5.57;;
78013;SDS011;67222;50.182;8.734;2023-04-29T18:52:48;9.65;;;6.00;;
78013;SDS011;67222;50.182;8.734;2023-04-29T18:55:14;10.80;;;6.17;;
78013;SDS011;67222;50.182;8.734;2023-04-29T18:57:39;10.00;;;5.60;;
78013;SDS011;67222;50.182;8.734;2023-04-29T19:00:04;8.93;;;5.68;;
78013;SDS011;67222;50.182;8.734;2023-04-29T19:02:30;8.77;;;5.50;;
78013;SDS011;67222;50.182;8.734;2023-04-29T19:04:55;8.70;;;5.38;;
78013;SDS011;67222;50.182;8.734;2023-04-29T19:07:21;8.73;;;5.25;;
78013;SDS011;67222;50.182;8.734;2023-04-29T19:09:46;10.30;;;5.57;;
78013;SDS011;67222;50.182;8.734;2023-04-29T19:12:11;9.57;;;4.90;;
78013;SDS011;67222;50.182;8.734;2023-04-29T19:14:37;11.00;;;5.80;;
78013;SDS011;67222;50.182;8.734;2023-04-29T19:17:02;8.23;;;5.78;;
78013;SDS011;67222;50.182;8.734;2023-04-29T19:19:28;8.80;;;5.63;;
78013;SDS011;67222;50.182;8.734;2023-04-29T19:21:54;8.80;;;5.28;;
78013;SDS011;67222;50.182;8.734;2023-04-29T19:24:20;9.93;;;5.70;;
78013;SDS011;67222;50.182;8.734;2023-04-29T19:26:46;10.53;;;5.47;;
78013;SDS011;67222;50.182;8.734;2023-04-29T19:29:11;9.18;;;5.72;;
78013;SDS011;67222;50.182;8.734;2023-04-29T19:31:36;10.87;;;6.57;;
78013;SDS011;67222;50.182;8.734;2023-04-29T19:34:02;10.57;;;5.63;;
78013;SDS011;67222;50.182;8.734;2023-04-29T19:36:27;11.93;;;6.15;;
78013;SDS011;67222;50.182;8.734;2023-04-29T19:38:53;12.03;;;5.93;;
78013;SDS011;67222;50.182;8.734;2023-04-29T19:41:18;8.20;;;5.78;;
78013;SDS011;67222;50.182;8.734;2023-04-29T19:43:44;10.30;;;6.07;;
78013;SDS011;67222;50.182;8.734;2023-04-29T19:46:10;9.65;;;5.90;;
78013;SDS011;67222;50.182;8.734;2023-04-29T19:48:36;8.95;;;6.13;;
78013;SDS011;67222;50.182;8.734;2023-04-29T19:51:04;9.68;;;5.93;;
78013;SDS011;67222;50.182;8.734;2023-04-29T19:53:30;9.68;;;6.00;;
78013;SDS011;67222;50.182;8.734;2023-04-29T19:55:55;9.70;;;5.83;;
78013;SDS011;67222;50.182;8.734;2023-04-29T19:58:21;8.83;;;5.67;;
78013;SDS011;67222;50.182;8.734;2023-04-29T20:00:46;11.17;;;6.00;;
78013;SDS011;67222;50.182;8.734;2023-04-29T20:03:12;9.82;;;5.95;;
78013;SDS011;67222;50.182;8.734;2023-04-29T20:05:38;7.95;;;5.60;;
78013;SDS011;67222;50.182;8.734;2023-04-29T20:08:04;9.57;;;6.05;;
78013;SDS011;67222;50.182;8.734;2023-04-29T20:10:31;10.70;;;6.32;;
78013;SDS011;67222;50.182;8.734;2023-04-29T20:12:56;9.15;;;6.22;;
78013;SDS011;67222;50.182;8.734;2023-04-29T20:15:21;10.43;;;6.47;;
78013;SDS011;67222;50.182;8.734;2023-04-29T20:17:47;10.43;;;6.50;;
78013;SDS011;67222;50.182;8.734;2023-04-29T20:20:12;10.80;;;6.10;;
78013;SDS011;67222;50.182;8.734;2023-04-29T20:22:37;9.48;;;6.00;;
78013;SDS011;67222;50.182;8.734;2023-04-29T20:25:03;10.55;;;7.13;;
78013;SDS011;67222;50.182;8.734;2023-04-29T20:27:29;10.18;;;6.78;;
78013;SDS011;67222;50.182;8.734;2023-04-29T20:29:54;9.68;;;6.70;;
78013;SDS011;67222;50.182;8.734;2023-04-29T20:32:20;10.57;;;7.07;;
78013;SDS011;67222;50.182;8.734;2023-04-29T20:34:45;10.27;;;6.97;;